sensor_id;sensor_type;location;lat;lon;timestamp;pressure;altitude;pressure_sealevel;temperature;humidity
76858;BME280;65830;0.000;0.000;2023-06-24T00:02:07;99724.25;;;24.36;56.80
76858;BME280;65830;0.000;0.000;2023-06-24T00:04:33;99725.75;;;24.32;57.18
76858;BME280;65830;0.000;0.000;2023-06-24T00:06:59;99719.28;;;24.33;57.18
76858;BME280;65830;0.000;0.000;2023-06-24T00:09:28;99716.88;;;24.43;56.92
76858;BME280;65830;0.000;0.000;2023-06-24T00:11:54;99718.28;;;24.46;56.78
76858;BME280;65830;0.000;0.000;2023-06-24T00:14:20;99715.66;;;24.39;56.74
76858;BME280;65830;0.000;0.000;2023-06-24T00:16:47;99715.88;;;24.37;56.82
76858;BME280;65830;0.000;0.000;2023-06-24T00:19:20;99714.25;;;24.36;56.59
76858;BME280;65830;0.000;0.000;2023-06-24T00:21:46;99714.97;;;24.44;56.70
76858;BME280;65830;0.000;0.000;2023-06-24T00:24:11;99703.34;;;24.25;56.45
76858;BME280;65830;0.000;0.000;2023-06-24T00:26:37;99699.03;;;24.17;57.00
76858;BME280;65830;0.000;0.000;2023-06-24T00:29:02;99705.66;;;24.21;56.35
76858;BME280;65830;0.000;0.000;2023-06-24T00:31:28;99702.34;;;24.19;56.22
76858;BME280;65830;0.000;0.000;2023-06-24T00:33:53;99715.31;;;24.17;56.17
76858;BME280;65830;0.000;0.000;2023-06-24T00:36:20;99702.13;;;24.21;56.43
76858;BME280;65830;0.000;0.000;2023-06-24T00:38:45;99698.22;;;24.16;56.41
76858;BME280;65830;0.000;0.000;2023-06-24T00:41:11;99697.25;;;24.11;56.12
76858;BME280;65830;0.000;0.000;2023-06-24T00:43:37;99704.84;;;23.84;56.91
76858;BME280;65830;0.000;0.000;2023-06-24T00:46:04;99700.50;;;23.83;56.88
76858;BME280;65830;0.000;0.000;2023-06-24T00:48:31;99702.94;;;23.84;56.58
76858;BME280;65830;0.000;0.000;2023-06-24T00:50:57;99691.38;;;23.70;57.02
76858;BME280;65830;0.000;0.000;2023-06-24T00:53:25;99690.34;;;23.71;56.97
76858;BME280;65830;0.000;0.000;2023-06-24T00:55:51;99687.66;;;23.71;56.64
76858;BME280;65830;0.000;0.000;2023-06-24T00:58:17;99691.34;;;23.77;56.23
76858;BME280;65830;0.000;0.000;2023-06-24T01:00:46;99690.59;;;23.88;55.33
76858;BME280;65830;0.000;0.000;2023-06-24T01:03:13;99687.69;;;23.90;55.29
76858;BME280;65830;0.000;0.000;2023-06-24T01:05:39;99685.44;;;23.87;54.69
76858;BME280;65830;0.000;0.000;2023-06-24T01:08:06;99693.31;;;23.88;54.81
76858;BME280;65830;0.000;0.000;2023-06-24T01:10:32;99696.88;;;23.89;54.31
76858;BME280;65830;0.000;0.000;2023-06-24T01:12:57;99698.63;;;23.76;53.80
76858;BME280;65830;0.000;0.000;2023-06-24T01:15:23;99704.34;;;23.68;54.00
76858;BME280;65830;0.000;0.000;2023-06-24T01:17:57;99693.06;;;23.71;53.89
76858;BME280;65830;0.000;0.000;2023-06-24T01:20:36;99698.22;;;23.79;53.13
76858;BME280;65830;0.000;0.000;2023-06-24T01:28:19;99682.03;;;23.48;52.22
76858;BME280;65830;0.000;0.000;2023-06-24T01:33:12;99680.34;;;23.28;52.43
76858;BME280;65830;0.000;0.000;2023-06-24T01:35:41;99682.00;;;23.29;52.25
76858;BME280;65830;0.000;0.000;2023-06-24T01:38:09;99672.00;;;23.30;51.93
76858;BME280;65830;0.000;0.000;2023-06-24T01:40:40;99682.84;;;23.30;52.29
76858;BME280;65830;0.000;0.000;2023-06-24T01:43:08;99687.19;;;23.31;52.05
76858;BME280;65830;0.000;0.000;2023-06-24T01:45:42;99693.19;;;23.33;51.95
76858;BME280;65830;0.000;0.000;2023-06-24T01:48:12;99686.22;;;23.25;52.14
76858;BME280;65830;0.000;0.000;2023-06-24T01:50:39;99694.53;;;23.24;52.28
76858;BME280;65830;0.000;0.000;2023-06-24T01:53:05;99696.38;;;23.30;52.82
76858;BME280;65830;0.000;0.000;2023-06-24T01:55:32;99688.47;;;23.28;52.48
76858;BME280;65830;0.000;0.000;2023-06-24T01:57:59;99689.94;;;23.24;52.76
76858;BME280;65830;0.000;0.000;2023-06-24T02:00:27;99695.03;;;23.14;52.44
76858;BME280;65830;0.000;0.000;2023-06-24T02:02:53;99701.97;;;23.03;52.95
76858;BME280;65830;0.000;0.000;2023-06-24T02:05:20;99699.34;;;22.90;53.50
76858;BME280;65830;0.000;0.000;2023-06-24T02:07:46;99706.63;;;22.89;53.98
76858;BME280;65830;0.000;0.000;2023-06-24T02:10:13;99707.34;;;22.78;53.47
76858;BME280;65830;0.000;0.000;2023-06-24T02:12:52;99703.97;;;22.83;53.67
76858;BME280;65830;0.000;0.000;2023-06-24T02:15:19;99721.69;;;22.78;53.97
76858;BME280;65830;0.000;0.000;2023-06-24T02:17:48;99719.03;;;22.72;54.29
76858;BME280;65830;0.000;0.000;2023-06-24T02:20:14;99725.47;;;22.71;53.50
76858;BME280;65830;0.000;0.000;2023-06-24T02:22:41;99719.63;;;22.74;53.71
76858;BME280;65830;0.000;0.000;2023-06-24T02:25:09;99721.13;;;22.70;54.09
76858;BME280;65830;0.000;0.000;2023-06-24T02:27:35;99725.81;;;22.81;53.22
76858;BME280;65830;0.000;0.000;2023-06-24T02:30:02;99733.72;;;22.83;53.89
76858;BME280;65830;0.000;0.000;2023-06-24T02:32:28;99740.41;;;22.80;53.72
76858;BME280;65830;0.000;0.000;2023-06-24T02:34:54;99747.72;;;22.73;53.63
76858;BME280;65830;0.000;0.000;2023-06-24T02:37:20;99737.97;;;22.72;53.96
76858;BME280;65830;0.000;0.000;2023-06-24T02:39:45;99749.25;;;22.62;54.07
76858;BME280;65830;0.000;0.000;2023-06-24T02:42:11;99754.19;;;22.65;53.79
76858;BME280;65830;0.000;0.000;2023-06-24T02:44:38;99746.59;;;22.49;54.20
76858;BME280;65830;0.000;0.000;2023-06-24T02:47:04;99753.31;;;22.19;55.02
76858;BME280;65830;0.000;0.000;2023-06-24T02:49:30;99754.97;;;22.14;55.35
76858;BME280;65830;0.000;0.000;2023-06-24T02:51:56;99761.66;;;22.18;55.12
76858;BME280;65830;0.000;0.000;2023-06-24T02:54:22;99748.13;;;22.25;55.28
76858;BME280;65830;0.000;0.000;2023-06-24T02:57:17;99751.66;;;22.18;55.37
76858;BME280;65830;0.000;0.000;2023-06-24T03:00:04;99765.78;;;22.14;55.40
76858;BME280;65830;0.000;0.000;2023-06-24T03:03:05;99769.16;;;22.02;55.69
76858;BME280;65830;0.000;0.000;2023-06-24T03:05:34;99766.03;;;22.12;55.57
76858;BME280;65830;0.000;0.000;2023-06-24T03:08:00;99760.81;;;22.17;55.29
76858;BME280;65830;0.000;0.000;2023-06-24T03:10:29;99753.34;;;22.13;55.46
76858;BME280;65830;0.000;0.000;2023-06-24T03:12:56;99761.41;;;22.19;55.24
76858;BME280;65830;0.000;0.000;2023-06-24T03:17:54;99752.06;;;22.22;55.10
76858;BME280;65830;0.000;0.000;2023-06-24T03:20:21;99757.91;;;22.12;55.13
76858;BME280;65830;0.000;0.000;2023-06-24T03:22:48;99762.09;;;22.01;55.48
76858;BME280;65830;0.000;0.000;2023-06-24T03:25:15;99747.97;;;22.06;55.64
76858;BME280;65830;0.000;0.000;2023-06-24T03:27:41;99756.25;;;22.11;55.52
76858;BME280;65830;0.000;0.000;2023-06-24T03:30:08;99758.78;;;22.06;55.07
76858;BME280;65830;0.000;0.000;2023-06-24T03:32:36;99769.75;;;22.11;54.79
76858;BME280;65830;0.000;0.000;2023-06-24T03:35:02;99765.81;;;22.07;55.29
76858;BME280;65830;0.000;0.000;2023-06-24T03:37:28;99769.75;;;22.18;54.89
76858;BME280;65830;0.000;0.000;2023-06-24T03:39:55;99772.47;;;22.05;54.86
76858;BME280;65830;0.000;0.000;2023-06-24T03:42:21;99769.78;;;21.98;55.15
76858;BME280;65830;0.000;0.000;2023-06-24T03:44:46;99767.91;;;21.92;55.23
76858;BME280;65830;0.000;0.000;2023-06-24T03:47:12;99756.88;;;22.07;54.86
76858;BME280;65830;0.000;0.000;2023-06-24T03:49:38;99770.22;;;21.95;54.91
76858;BME280;65830;0.000;0.000;2023-06-24T03:52:04;99764.38;;;21.98;55.43
76858;BME280;65830;0.000;0.000;2023-06-24T03:54:34;99761.66;;;21.98;54.89
76858;BME280;65830;0.000;0.000;2023-06-24T03:56:59;99763.16;;;22.00;54.86
76858;BME280;65830;0.000;0.000;2023-06-24T03:59:25;99761.06;;;21.96;54.82
76858;BME280;65830;0.000;0.000;2023-06-24T04:01:52;99768.75;;;21.99;55.23
76858;BME280;65830;0.000;0.000;2023-06-24T04:04:19;99766.63;;;22.08;54.58
76858;BME280;65830;0.000;0.000;2023-06-24T04:06:44;99764.56;;;22.10;54.36
76858;BME280;65830;0.000;0.000;2023-06-24T04:09:12;99766.03;;;22.12;54.17
76858;BME280;65830;0.000;0.000;2023-06-24T04:11:38;99765.38;;;22.17;54.11
76858;BME280;65830;0.000;0.000;2023-06-24T04:14:03;99762.06;;;22.28;53.68
76858;BME280;65830;0.000;0.000;2023-06-24T04:16:32;99759.94;;;22.24;53.18
76858;BME280;65830;0.000;0.000;2023-06-24T04:18:59;99763.09;;;22.27;53.21
76858;BME280;65830;0.000;0.000;2023-06-24T04:21:25;99771.81;;;22.23;53.46
76858;BME280;65830;0.000;0.000;2023-06-24T04:23:51;99769.13;;;22.23;53.14
76858;BME280;65830;0.000;0.000;2023-06-24T04:26:16;99779.50;;;22.26;53.67
76858;BME280;65830;0.000;0.000;2023-06-24T04:28:42;99779.09;;;22.22;53.25
76858;BME280;65830;0.000;0.000;2023-06-24T04:31:07;99786.38;;;22.28;53.11
76858;BME280;65830;0.000;0.000;2023-06-24T04:33:33;99780.13;;;22.28;53.25
76858;BME280;65830;0.000;0.000;2023-06-24T04:35:59;99783.88;;;22.27;53.03
76858;BME280;65830;0.000;0.000;2023-06-24T04:38:25;99791.34;;;22.38;53.02
76858;BME280;65830;0.000;0.000;2023-06-24T04:40:51;99790.50;;;22.44;53.00
76858;BME280;65830;0.000;0.000;2023-06-24T04:43:16;99795.28;;;22.42;52.88
76858;BME280;65830;0.000;0.000;2023-06-24T04:45:42;99794.22;;;22.50;52.92
76858;BME280;65830;0.000;0.000;2023-06-24T04:48:07;99803.16;;;22.44;52.58
76858;BME280;65830;0.000;0.000;2023-06-24T04:50:33;99809.84;;;22.41;53.19
76858;BME280;65830;0.000;0.000;2023-06-24T04:52:58;99808.56;;;22.44;52.93
76858;BME280;65830;0.000;0.000;2023-06-24T04:55:26;99815.44;;;22.46;52.85
76858;BME280;65830;0.000;0.000;2023-06-24T04:57:51;99814.22;;;22.42;52.86
76858;BME280;65830;0.000;0.000;2023-06-24T05:00:17;99813.81;;;22.38;53.39
76858;BME280;65830;0.000;0.000;2023-06-24T05:02:42;99811.88;;;22.46;52.81
76858;BME280;65830;0.000;0.000;2023-06-24T05:05:08;99818.75;;;22.48;53.02
76858;BME280;65830;0.000;0.000;2023-06-24T05:07:34;99816.88;;;22.49;52.76
76858;BME280;65830;0.000;0.000;2023-06-24T05:09:59;99814.84;;;22.44;52.53
76858;BME280;65830;0.000;0.000;2023-06-24T05:12:24;99817.34;;;22.32;53.02
76858;BME280;65830;0.000;0.000;2023-06-24T05:14:50;99819.38;;;22.44;53.35
76858;BME280;65830;0.000;0.000;2023-06-24T05:17:19;99827.47;;;22.57;52.85
76858;BME280;65830;0.000;0.000;2023-06-24T05:19:45;99830.56;;;22.60;52.24
76858;BME280;65830;0.000;0.000;2023-06-24T05:22:10;99823.72;;;22.51;52.59
76858;BME280;65830;0.000;0.000;2023-06-24T05:24:36;99828.91;;;22.66;52.25
76858;BME280;65830;0.000;0.000;2023-06-24T05:27:05;99839.28;;;22.69;51.85
76858;BME280;65830;0.000;0.000;2023-06-24T05:29:31;99828.66;;;22.74;51.92
76858;BME280;65830;0.000;0.000;2023-06-24T05:31:57;99835.53;;;22.70;52.02
76858;BME280;65830;0.000;0.000;2023-06-24T05:34:22;99830.50;;;22.80;51.53
76858;BME280;65830;0.000;0.000;2023-06-24T05:36:48;99827.19;;;22.78;51.34
76858;BME280;65830;0.000;0.000;2023-06-24T05:39:13;99832.16;;;22.82;51.21
76858;BME280;65830;0.000;0.000;2023-06-24T05:41:39;99837.53;;;22.88;51.46
76858;BME280;65830;0.000;0.000;2023-06-24T05:44:05;99836.31;;;22.84;51.27
76858;BME280;65830;0.000;0.000;2023-06-24T05:46:31;99842.53;;;22.85;51.53
76858;BME280;65830;0.000;0.000;2023-06-24T05:48:57;99842.50;;;22.98;51.23
76858;BME280;65830;0.000;0.000;2023-06-24T05:51:22;99830.44;;;22.94;51.18
76858;BME280;65830;0.000;0.000;2023-06-24T05:53:48;99827.91;;;22.99;51.17
76858;BME280;65830;0.000;0.000;2023-06-24T05:56:13;99828.31;;;23.09;51.37
76858;BME280;65830;0.000;0.000;2023-06-24T05:58:39;99835.38;;;23.10;51.03
76858;BME280;65830;0.000;0.000;2023-06-24T06:01:05;99838.22;;;23.22;51.43
76858;BME280;65830;0.000;0.000;2023-06-24T06:03:31;99838.78;;;23.31;51.26
76858;BME280;65830;0.000;0.000;2023-06-24T06:05:56;99833.75;;;23.34;51.21
76858;BME280;65830;0.000;0.000;2023-06-24T06:08:22;99830.25;;;23.34;51.00
76858;BME280;65830;0.000;0.000;2023-06-24T06:10:48;99832.47;;;23.44;51.18
76858;BME280;65830;0.000;0.000;2023-06-24T06:13:13;99826.38;;;23.48;50.99
76858;BME280;65830;0.000;0.000;2023-06-24T06:15:39;99827.44;;;23.72;51.58
76858;BME280;65830;0.000;0.000;2023-06-24T06:18:04;99819.91;;;23.74;50.64
76858;BME280;65830;0.000;0.000;2023-06-24T06:20:30;99827.22;;;23.74;50.76
76858;BME280;65830;0.000;0.000;2023-06-24T06:22:55;99823.66;;;23.80;51.27
76858;BME280;65830;0.000;0.000;2023-06-24T06:25:21;99807.66;;;23.72;51.47
76858;BME280;65830;0.000;0.000;2023-06-24T06:27:46;99810.06;;;23.87;51.28
76858;BME280;65830;0.000;0.000;2023-06-24T06:30:12;99810.69;;;23.89;51.60
76858;BME280;65830;0.000;0.000;2023-06-24T06:32:37;99799.16;;;23.93;51.87
76858;BME280;65830;0.000;0.000;2023-06-24T06:35:03;99798.06;;;24.01;52.05
76858;BME280;65830;0.000;0.000;2023-06-24T06:37:28;99799.56;;;24.15;52.35
76858;BME280;65830;0.000;0.000;2023-06-24T06:39:54;99798.16;;;24.13;51.68
76858;BME280;65830;0.000;0.000;2023-06-24T06:42:19;99796.63;;;24.17;51.88
76858;BME280;65830;0.000;0.000;2023-06-24T06:44:45;99808.31;;;24.17;51.59
76858;BME280;65830;0.000;0.000;2023-06-24T06:47:10;99797.75;;;24.28;52.17
76858;BME280;65830;0.000;0.000;2023-06-24T06:49:36;99810.19;;;24.35;50.92
76858;BME280;65830;0.000;0.000;2023-06-24T06:52:01;99803.50;;;24.38;50.11
76858;BME280;65830;0.000;0.000;2023-06-24T06:54:27;99803.38;;;24.51;50.66
76858;BME280;65830;0.000;0.000;2023-06-24T06:56:52;99788.69;;;24.59;49.97
76858;BME280;65830;0.000;0.000;2023-06-24T06:59:18;99800.81;;;24.56;49.65
76858;BME280;65830;0.000;0.000;2023-06-24T07:01:44;99796.13;;;24.64;49.76
76858;BME280;65830;0.000;0.000;2023-06-24T07:04:09;99785.59;;;24.74;49.63
76858;BME280;65830;0.000;0.000;2023-06-24T07:06:35;99787.28;;;24.87;49.33
76858;BME280;65830;0.000;0.000;2023-06-24T07:09:02;99793.81;;;24.97;49.02
76858;BME280;65830;0.000;0.000;2023-06-24T07:11:28;99786.34;;;24.93;48.14
76858;BME280;65830;0.000;0.000;2023-06-24T07:13:53;99788.69;;;24.89;49.24
76858;BME280;65830;0.000;0.000;2023-06-24T07:16:19;99780.38;;;25.03;48.69
76858;BME280;65830;0.000;0.000;2023-06-24T07:18:45;99784.88;;;25.09;49.65
76858;BME280;65830;0.000;0.000;2023-06-24T07:21:10;99779.38;;;25.15;48.33
76858;BME280;65830;0.000;0.000;2023-06-24T07:23:36;99781.59;;;25.18;47.66
76858;BME280;65830;0.000;0.000;2023-06-24T07:26:01;99771.81;;;25.17;48.28
76858;BME280;65830;0.000;0.000;2023-06-24T07:28:27;99776.13;;;25.25;47.65
76858;BME280;65830;0.000;0.000;2023-06-24T07:30:53;99781.56;;;25.25;47.56
76858;BME280;65830;0.000;0.000;2023-06-24T07:33:18;99786.06;;;25.31;47.51
76858;BME280;65830;0.000;0.000;2023-06-24T07:35:44;99795.97;;;25.38;47.58
76858;BME280;65830;0.000;0.000;2023-06-24T07:38:09;99791.13;;;25.40;47.42
76858;BME280;65830;0.000;0.000;2023-06-24T07:40:35;99785.34;;;25.36;47.47
76858;BME280;65830;0.000;0.000;2023-06-24T07:43:00;99772.56;;;25.36;47.75
76858;BME280;65830;0.000;0.000;2023-06-24T07:45:26;99774.50;;;25.48;47.48
76858;BME280;65830;0.000;0.000;2023-06-24T07:47:51;99784.19;;;25.55;47.68
76858;BME280;65830;0.000;0.000;2023-06-24T07:50:17;99775.34;;;25.60;47.27
76858;BME280;65830;0.000;0.000;2023-06-24T07:52:42;99784.56;;;25.59;47.37
76858;BME280;65830;0.000;0.000;2023-06-24T07:55:08;99778.19;;;25.65;46.74
76858;BME280;65830;0.000;0.000;2023-06-24T07:57:33;99781.84;;;25.59;46.61
76858;BME280;65830;0.000;0.000;2023-06-24T07:59:59;99781.25;;;25.57;46.55
76858;BME280;65830;0.000;0.000;2023-06-24T08:02:24;99780.78;;;25.72;46.33
76858;BME280;65830;0.000;0.000;2023-06-24T08:04:50;99785.06;;;25.91;46.17
76858;BME280;65830;0.000;0.000;2023-06-24T08:07:16;99782.34;;;26.03;45.93
76858;BME280;65830;0.000;0.000;2023-06-24T08:09:41;99784.34;;;26.08;44.74
76858;BME280;65830;0.000;0.000;2023-06-24T08:12:07;99784.00;;;26.04;45.08
76858;BME280;65830;0.000;0.000;2023-06-24T08:14:32;99788.47;;;26.10;45.20
76858;BME280;65830;0.000;0.000;2023-06-24T08:16:58;99776.09;;;26.14;45.40
76858;BME280;65830;0.000;0.000;2023-06-24T08:19:24;99780.22;;;26.17;45.20
76858;BME280;65830;0.000;0.000;2023-06-24T08:21:49;99777.25;;;26.19;45.19
76858;BME280;65830;0.000;0.000;2023-06-24T08:24:14;99781.63;;;26.20;44.70
76858;BME280;65830;0.000;0.000;2023-06-24T08:26:40;99784.47;;;26.13;44.85
76858;BME280;65830;0.000;0.000;2023-06-24T08:29:05;99780.28;;;26.34;46.77
76858;BME280;65830;0.000;0.000;2023-06-24T08:31:32;99781.94;;;26.47;45.25
76858;BME280;65830;0.000;0.000;2023-06-24T08:34:01;99779.66;;;26.44;44.32
76858;BME280;65830;0.000;0.000;2023-06-24T08:36:31;99779.81;;;26.37;44.47
76858;BME280;65830;0.000;0.000;2023-06-24T08:38:57;99778.16;;;26.36;44.67
76858;BME280;65830;0.000;0.000;2023-06-24T08:41:22;99774.00;;;26.45;44.22
76858;BME280;65830;0.000;0.000;2023-06-24T08:43:50;99766.78;;;26.51;44.09
76858;BME280;65830;0.000;0.000;2023-06-24T08:46:16;99762.06;;;26.58;44.19
76858;BME280;65830;0.000;0.000;2023-06-24T08:48:42;99765.44;;;26.65;44.70
76858;BME280;65830;0.000;0.000;2023-06-24T08:51:08;99766.38;;;26.71;44.28
76858;BME280;65830;0.000;0.000;2023-06-24T08:53:35;99773.00;;;26.75;44.34
76858;BME280;65830;0.000;0.000;2023-06-24T08:56:03;99769.78;;;26.78;44.23
76858;BME280;65830;0.000;0.000;2023-06-24T08:58:29;99773.81;;;26.75;44.54
76858;BME280;65830;0.000;0.000;2023-06-24T09:00:55;99768.59;;;26.86;45.53
76858;BME280;65830;0.000;0.000;2023-06-24T09:03:21;99778.34;;;26.99;44.67
76858;BME280;65830;0.000;0.000;2023-06-24T09:05:47;99778.44;;;27.04;44.22
76858;BME280;65830;0.000;0.000;2023-06-24T09:08:13;99776.53;;;27.04;44.53
76858;BME280;65830;0.000;0.000;2023-06-24T09:10:41;99771.09;;;27.04;44.23
76858;BME280;65830;0.000;0.000;2023-06-24T09:13:07;99759.03;;;27.17;44.92
76858;BME280;65830;0.000;0.000;2023-06-24T09:15:36;99760.56;;;27.25;45.21
76858;BME280;65830;0.000;0.000;2023-06-24T09:18:02;99755.94;;;27.25;43.72
76858;BME280;65830;0.000;0.000;2023-06-24T09:20:29;99756.78;;;27.26;43.91
76858;BME280;65830;0.000;0.000;2023-06-24T09:22:59;99750.13;;;27.33;45.19
76858;BME280;65830;0.000;0.000;2023-06-24T09:25:25;99754.06;;;27.43;44.28
76858;BME280;65830;0.000;0.000;2023-06-24T09:27:50;99740.44;;;27.43;45.85
76858;BME280;65830;0.000;0.000;2023-06-24T09:30:20;99744.25;;;27.42;45.28
76858;BME280;65830;0.000;0.000;2023-06-24T09:32:49;99741.25;;;27.60;45.18
76858;BME280;65830;0.000;0.000;2023-06-24T09:35:19;99737.28;;;27.68;45.34
76858;BME280;65830;0.000;0.000;2023-06-24T09:37:51;99737.97;;;27.58;45.75
76858;BME280;65830;0.000;0.000;2023-06-24T09:40:17;99732.28;;;27.60;43.22
76858;BME280;65830;0.000;0.000;2023-06-24T09:42:50;99725.91;;;27.54;46.00
76858;BME280;65830;0.000;0.000;2023-06-24T09:45:19;99722.31;;;27.70;45.69
76858;BME280;65830;0.000;0.000;2023-06-24T09:47:44;99717.97;;;27.69;45.38
76858;BME280;65830;0.000;0.000;2023-06-24T09:50:10;99709.84;;;27.74;45.32
76858;BME280;65830;0.000;0.000;2023-06-24T09:52:35;99694.59;;;27.73;45.84
76858;BME280;65830;0.000;0.000;2023-06-24T09:55:01;99693.56;;;27.80;45.17
76858;BME280;65830;0.000;0.000;2023-06-24T09:57:28;99687.34;;;27.84;44.83
76858;BME280;65830;0.000;0.000;2023-06-24T09:59:54;99686.03;;;27.87;45.84
76858;BME280;65830;0.000;0.000;2023-06-24T10:02:20;99679.53;;;27.88;45.36
76858;BME280;65830;0.000;0.000;2023-06-24T10:04:46;99681.91;;;28.01;45.73
76858;BME280;65830;0.000;0.000;2023-06-24T10:07:13;99677.44;;;27.95;45.40
76858;BME280;65830;0.000;0.000;2023-06-24T10:09:39;99681.50;;;27.92;45.45
76858;BME280;65830;0.000;0.000;2023-06-24T10:12:05;99674.28;;;28.03;45.77
76858;BME280;65830;0.000;0.000;2023-06-24T10:14:31;99670.28;;;27.89;46.34
76858;BME280;65830;0.000;0.000;2023-06-24T10:17:03;99670.97;;;28.01;44.68
76858;BME280;65830;0.000;0.000;2023-06-24T10:19:29;99659.75;;;27.98;45.69
76858;BME280;65830;0.000;0.000;2023-06-24T10:21:57;99671.56;;;28.03;45.27
76858;BME280;65830;0.000;0.000;2023-06-24T10:24:33;99667.69;;;27.99;44.29
76858;BME280;65830;0.000;0.000;2023-06-24T10:27:09;99672.13;;;28.05;45.66
76858;BME280;65830;0.000;0.000;2023-06-24T10:29:38;99661.19;;;28.27;44.82
76858;BME280;65830;0.000;0.000;2023-06-24T10:32:05;99664.94;;;28.21;44.85
76858;BME280;65830;0.000;0.000;2023-06-24T10:37:08;99662.47;;;28.20;44.51
76858;BME280;65830;0.000;0.000;2023-06-24T10:39:37;99658.25;;;28.07;45.10
76858;BME280;65830;0.000;0.000;2023-06-24T10:44:47;99646.09;;;28.20;44.71
76858;BME280;65830;0.000;0.000;2023-06-24T10:47:13;99649.41;;;28.22;44.96
76858;BME280;65830;0.000;0.000;2023-06-24T10:49:38;99636.72;;;28.32;44.71
76858;BME280;65830;0.000;0.000;2023-06-24T10:52:04;99637.56;;;28.38;43.38
76858;BME280;65830;0.000;0.000;2023-06-24T10:54:32;99638.19;;;28.45;43.91
76858;BME280;65830;0.000;0.000;2023-06-24T10:56:58;99631.59;;;28.41;44.30
76858;BME280;65830;0.000;0.000;2023-06-24T10:59:23;99621.00;;;28.45;44.12
76858;BME280;65830;0.000;0.000;2023-06-24T11:01:52;99619.09;;;28.73;42.73
76858;BME280;65830;0.000;0.000;2023-06-24T11:04:18;99612.16;;;28.60;43.79
76858;BME280;65830;0.000;0.000;2023-06-24T11:06:56;99600.72;;;28.63;44.12
76858;BME280;65830;0.000;0.000;2023-06-24T11:09:22;99594.16;;;28.64;44.17
76858;BME280;65830;0.000;0.000;2023-06-24T11:11:47;99592.13;;;28.76;42.32
76858;BME280;65830;0.000;0.000;2023-06-24T11:14:15;99581.84;;;28.94;42.85
76858;BME280;65830;0.000;0.000;2023-06-24T11:16:40;99589.56;;;29.02;43.22
76858;BME280;65830;0.000;0.000;2023-06-24T11:19:06;99582.16;;;28.97;43.37
76858;BME280;65830;0.000;0.000;2023-06-24T11:21:31;99575.13;;;29.06;43.09
76858;BME280;65830;0.000;0.000;2023-06-24T11:24:03;99565.28;;;29.48;42.49
76858;BME280;65830;0.000;0.000;2023-06-24T11:26:28;99558.75;;;29.54;42.56
76858;BME280;65830;0.000;0.000;2023-06-24T11:28:54;99558.72;;;29.49;42.41
76858;BME280;65830;0.000;0.000;2023-06-24T11:31:24;99554.22;;;29.80;41.31
76858;BME280;65830;0.000;0.000;2023-06-24T11:33:49;99550.09;;;29.73;41.93
76858;BME280;65830;0.000;0.000;2023-06-24T11:36:18;99544.56;;;29.62;42.07
76858;BME280;65830;0.000;0.000;2023-06-24T11:38:47;99552.84;;;29.78;41.98
76858;BME280;65830;0.000;0.000;2023-06-24T11:41:13;99549.63;;;30.06;41.19
76858;BME280;65830;0.000;0.000;2023-06-24T11:43:45;99541.44;;;30.06;41.29
76858;BME280;65830;0.000;0.000;2023-06-24T11:46:10;99543.63;;;29.99;41.59
76858;BME280;65830;0.000;0.000;2023-06-24T11:48:39;99534.63;;;30.19;40.98
76858;BME280;65830;0.000;0.000;2023-06-24T11:51:11;99532.72;;;30.30;41.33
76858;BME280;65830;0.000;0.000;2023-06-24T11:53:40;99528.66;;;30.63;40.22
76858;BME280;65830;0.000;0.000;2023-06-24T11:56:07;99525.91;;;30.79;40.36
76858;BME280;65830;0.000;0.000;2023-06-24T11:58:34;99525.91;;;30.94;40.15
76858;BME280;65830;0.000;0.000;2023-06-24T12:01:00;99528.91;;;30.82;40.60
76858;BME280;65830;0.000;0.000;2023-06-24T12:03:25;99517.94;;;31.03;39.61
76858;BME280;65830;0.000;0.000;2023-06-24T12:05:53;99520.66;;;30.87;39.87
76858;BME280;65830;0.000;0.000;2023-06-24T12:08:18;99522.31;;;31.04;39.63
76858;BME280;65830;0.000;0.000;2023-06-24T12:10:44;99518.44;;;31.20;39.37
76858;BME280;65830;0.000;0.000;2023-06-24T12:13:10;99513.13;;;31.44;39.27
76858;BME280;65830;0.000;0.000;2023-06-24T12:15:35;99511.91;;;31.76;38.26
76858;BME280;65830;0.000;0.000;2023-06-24T12:18:01;99510.59;;;31.69;38.30
76858;BME280;65830;0.000;0.000;2023-06-24T12:20:30;99503.69;;;31.71;37.85
76858;BME280;65830;0.000;0.000;2023-06-24T12:22:57;99506.50;;;32.11;37.75
76858;BME280;65830;0.000;0.000;2023-06-24T12:25:23;99502.84;;;32.25;37.23
76858;BME280;65830;0.000;0.000;2023-06-24T12:27:49;99501.84;;;32.45;37.01
76858;BME280;65830;0.000;0.000;2023-06-24T12:30:14;99488.28;;;32.89;35.45
76858;BME280;65830;0.000;0.000;2023-06-24T12:32:41;99469.31;;;33.16;34.95
76858;BME280;65830;0.000;0.000;2023-06-24T12:35:13;99472.06;;;33.16;35.26
76858;BME280;65830;0.000;0.000;2023-06-24T12:37:59;99469.00;;;33.18;35.38
76858;BME280;65830;0.000;0.000;2023-06-24T12:40:24;99458.94;;;33.32;35.31
76858;BME280;65830;0.000;0.000;2023-06-24T12:42:50;99453.41;;;33.56;34.31
76858;BME280;65830;0.000;0.000;2023-06-24T12:45:15;99439.47;;;33.72;34.25
76858;BME280;65830;0.000;0.000;2023-06-24T12:47:41;99442.63;;;33.79;34.03
76858;BME280;65830;0.000;0.000;2023-06-24T12:50:07;99428.41;;;33.91;32.96
76858;BME280;65830;0.000;0.000;2023-06-24T12:52:33;99438.56;;;34.09;33.62
76858;BME280;65830;0.000;0.000;2023-06-24T12:54:59;99438.50;;;34.33;31.71
76858;BME280;65830;0.000;0.000;2023-06-24T12:57:24;99440.22;;;34.43;32.81
76858;BME280;65830;0.000;0.000;2023-06-24T12:59:49;99435.94;;;34.51;32.44
76858;BME280;65830;0.000;0.000;2023-06-24T13:02:15;99429.56;;;34.55;32.47
76858;BME280;65830;0.000;0.000;2023-06-24T13:04:40;99421.16;;;34.47;31.80
76858;BME280;65830;0.000;0.000;2023-06-24T13:07:06;99421.50;;;34.59;32.38
76858;BME280;65830;0.000;0.000;2023-06-24T13:09:32;99411.16;;;34.65;32.36
76858;BME280;65830;0.000;0.000;2023-06-24T13:11:57;99417.22;;;34.80;32.01
76858;BME280;65830;0.000;0.000;2023-06-24T13:14:23;99415.63;;;34.93;32.14
76858;BME280;65830;0.000;0.000;2023-06-24T13:16:50;99421.63;;;34.95;31.54
76858;BME280;65830;0.000;0.000;2023-06-24T13:19:16;99435.94;;;34.84;31.78
76858;BME280;65830;0.000;0.000;2023-06-24T13:21:42;99424.31;;;34.73;32.13
76858;BME280;65830;0.000;0.000;2023-06-24T13:24:08;99422.66;;;34.86;31.39